• Join FlightAware (Why Join?)
  • Login
  • US Flag 
05:45PM EST


 

Airport Tracker/Info


-or-


 

Live Flight TrackerFlight Track Log ✈ DAL3926 ✈ 19-Apr-2013 ✈ KMSP - KDLH

Flight Track Log - Related Links

Times and Time Zones

All times are in EDT time to prevent confusion due to time zone crossing. See the DAL3926 flight status page for this flight to view local times or setup timezone preferences in your user account.

Time Position Orientation Groundspeed Altitude Reporting Facility
EDT Latitude Longitude Course Direction KTS MPH feet Rate Location/Type
01:16PM 44.9064 -93.2311 45° Northeast 138 159 2,500  Level FAA TRACON SMA TRACON (SMA)
01:16PM 44.9181 -93.2350 347° North 138 159 2,900 1,500 Climbing FAA TRACON SMA TRACON (SMA)
01:16PM 44.9361 -93.2411 347° North 167 192 3,500 2,520 Climbing FAA TRACON SMA TRACON (SMA)
01:17PM 44.9511 -93.2461 347° North 180 207 4,600 3,120 Climbing FAA TRACON SMA TRACON (SMA)
01:17PM 44.9697 -93.2536 344° North 180 207 5,600 1,980 Climbing FAA TRACON SMA TRACON (SMA)
01:17PM 44.9881 -93.2542 359° North 203 234 5,900 1,680 Climbing FAA TRACON SMA TRACON (SMA)
01:18PM 45.0819 -93.3281 332° Northwest  Level FlightAware Approximate
01:18PM 45.0083 -93.2508 North 232 267 6,700  Level FAA TRACON SMA TRACON (SMA)
01:18PM 45.0283 -93.2478 North 239 275 7,700 3,180 Climbing FAA TRACON SMA TRACON (SMA)
01:18PM 45.0542 -93.2442 North 241 277 8,900 2,760 Climbing FAA TRACON SMA TRACON (SMA)
01:19PM 45.1465 -93.3483 45° Northeast  Level FlightAware Approximate
01:19PM 45.0750 -93.2411 North 243 280 9,600  Level FAA TRACON SMA TRACON (SMA)
01:19PM 45.0961 -93.2378 North 247 284 10,500 2,520 Climbing FAA TRACON SMA TRACON (SMA)
01:19PM 45.1222 -93.2336 North 247 284 11,300 1,320 Climbing FAA TRACON SMA TRACON (SMA)
01:20PM 45.2010 -93.2719 45° Northeast  Level FlightAware Approximate
01:20PM 45.1447 -93.2306 North 258 297 11,400  Level FAA TRACON SMA TRACON (SMA)
01:20PM 45.2006 -93.2244 North 293 337 12,600 1,800 Climbing FAA TRACON SMA TRACON (SMA)
01:21PM 45.2572 -93.1922 45° Northeast  Level FlightAware Approximate
01:21PM 45.2261 -93.2211 North 298 343 13,200  Level FAA TRACON SMA TRACON (SMA)
01:21PM 45.2519 -93.2133 12° North 306 352 13,600 1,020 Climbing FAA TRACON SMA TRACON (SMA)
01:21PM 45.2836 -93.1939 23° Northeast 318 366 13,900 540 Climbing FAA TRACON SMA TRACON (SMA)
01:22PM 45.3097 -93.1778 23° Northeast 327 376 14,000 120 Climbing FAA TRACON SMA TRACON (SMA)
01:22PM 45.3364 -93.1617 23° Northeast 334 384 14,000  Level FAA TRACON SMA TRACON (SMA)
01:22PM 45.3700 -93.1406 24° Northeast 341 392 14,000  Level FAA TRACON SMA TRACON (SMA)
01:23PM 45.3967 -93.1200 28° Northeast 349 402 14,000  Level FAA TRACON SMA TRACON (SMA)
01:23PM 45.4244 -93.1067 19° North 347 399 14,000  Level FAA TRACON SMA TRACON (SMA)
01:23PM 45.4586 -93.0847 24° Northeast 350 403 14,000  Level FAA TRACON SMA TRACON (SMA)
01:24PM 45.4864 -93.0681 23° Northeast 349 402 14,000  Level FAA TRACON SMA TRACON (SMA)
01:24PM 45.5142 -93.0522 22° Northeast 351 404 14,000  Level FAA TRACON SMA TRACON (SMA)
01:24PM 45.5489 -93.0303 24° Northeast 353 406 14,000  Level FAA TRACON SMA TRACON (SMA)
01:25PM 45.5767 -93.0122 24° Northeast 354 407 14,000  Level FAA TRACON SMA TRACON (SMA)
01:25PM 45.6044 -92.9953 23° Northeast 354 407 14,000  Level FAA TRACON SMA TRACON (SMA)
01:25PM 45.6322 -92.9775 24° Northeast 355 409 14,000  Level FAA TRACON SMA TRACON (SMA)
01:26PM 45.6669 -92.9547 25° Northeast 356 410 14,000  Level FAA TRACON SMA TRACON (SMA)
01:26PM 45.6950 -92.9375 23° Northeast 356 410 14,000  Level FAA TRACON SMA TRACON (SMA)
01:26PM 45.7300 -92.9167 23° Northeast 355 409 14,000  Level FAA TRACON SMA TRACON (SMA)
01:27PM 45.7575 -92.8983 25° Northeast 354 407 14,000  Level FAA TRACON SMA TRACON (SMA)
01:27PM 45.7856 -92.8811 23° Northeast 354 407 14,000  Level FAA TRACON SMA TRACON (SMA)
01:27PM 45.8133 -92.8639 23° Northeast 354 407 14,000  Level FAA TRACON SMA TRACON (SMA)
01:28PM 45.8481 -92.8431 23° Northeast 354 407 14,000  Level FAA TRACON SMA TRACON (SMA)
01:28PM 45.8817 -92.8158 29° Northeast 354 407 14,000 -180 Level Minneapolis Center
01:29PM 45.9722 -92.7617 23° Northeast 352 405 13,800 -120 Descending Minneapolis Center
01:30PM 46.0611 -92.7033 24° Northeast 353 406 13,800 -60 Level Minneapolis Center
01:31PM 46.1478 -92.6481 24° Northeast 347 399 13,700 -360 Descending Minneapolis Center
01:32PM 46.2336 -92.5892 25° Northeast 338 389 13,100 -480 Descending Minneapolis Center
01:33PM 46.2992 -92.4925 46° Northeast 337 388 12,800 -180 Descending Minneapolis Center
01:34PM 46.3747 -92.3817 45° Northeast 327 376 12,800  Level Minneapolis Center
01:35PM 46.4375 -92.2958 43° Northeast 317 365 12,800 -300 Level Minneapolis Center
01:36PM 46.4981 -92.2083 45° Northeast 311 358 12,200 -1,020 Descending Minneapolis Center
01:37PM 46.5525 -92.1292 45° Northeast 290 334 10,700 -1,500 Descending Minneapolis Center
01:38PM 46.6019 -92.0619 43° Northeast 256 295 9,200 -1,560 Descending Minneapolis Center
01:39PM 46.6514 -92.0064 38° Northeast 240 276 7,600 -1,920 Descending Minneapolis Center
01:40PM 46.7078 -91.9431 38° Northeast 225 259 5,300 -1,860 Descending Minneapolis Center
01:42PM 46.7569 -91.8889 37° Northeast 223 257 3,800 -1,080 Descending Minneapolis Center
01:43PM 46.8114 -91.8922 358° North 205 236 3,100 -360 Descending Minneapolis Center
01:44PM 46.8311 -91.9489 297° West 172 198 3,100  Level Minneapolis Center
01:45PM 46.8514 -92.0011 300° West 166 191 3,100  Level Minneapolis Center
01:46PM 46.9058 -91.9889 North 186 214 3,100  Level Minneapolis Center
01:47PM 46.8756 -91.9144 121° Southeast 219 252 3,200  Climbing Minneapolis Center
01:48PM 46.8208 -91.9608 210° Southwest 242 278 3,100  Descending Minneapolis Center
01:49PM 46.8336 -92.0219 287° West 183 211 3,300 180 Climbing Minneapolis Center